createdAt,value
2018-09-30T00:00:47.106Z,100735.00
2018-09-30T00:03:14.067Z,100728.05
2018-09-30T00:05:40.917Z,100727.47
2018-09-30T00:08:07.866Z,100730.86
2018-09-30T00:10:34.806Z,100720.86
2018-09-30T00:13:01.674Z,100721.47
2018-09-30T00:15:28.514Z,100716.73
2018-09-30T00:17:55.430Z,100716.97
2018-09-30T00:20:22.346Z,100713.91
2018-09-30T00:22:49.194Z,100713.69
2018-09-30T00:25:21.878Z,100711.93
2018-09-30T00:27:48.750Z,100712.72
2018-09-30T00:30:15.598Z,100700.12
2018-09-30T00:32:42.426Z,100698.80
2018-09-30T00:37:40.711Z,100706.52
2018-09-30T00:40:09.687Z,100703.32
2018-09-30T00:42:36.633Z,100701.84
2018-09-30T00:45:03.497Z,100701.22
2018-09-30T00:47:30.331Z,100697.81
2018-09-30T00:49:58.230Z,100691.02
2018-09-30T00:52:25.102Z,100690.78
2018-09-30T00:54:52.058Z,100687.95
2018-09-30T00:57:19.938Z,100683.95
2018-09-30T00:59:46.776Z,100683.25
2018-09-30T01:02:13.747Z,100677.61
2018-09-30T01:04:40.682Z,100685.84
2018-09-30T01:07:07.539Z,100685.60
2018-09-30T01:09:34.386Z,100682.66
2018-09-30T01:12:01.262Z,100686.66
2018-09-30T01:14:28.203Z,100680.92
2018-09-30T01:16:55.083Z,100681.14
2018-09-30T01:19:22.019Z,100678.16
2018-09-30T01:21:48.870Z,100678.36
2018-09-30T01:24:15.749Z,100668.20
2018-09-30T01:26:42.689Z,100663.33
2018-09-30T01:29:09.541Z,100667.25
2018-09-30T01:31:36.374Z,100663.84
2018-09-30T01:34:04.281Z,100664.55
2018-09-30T01:36:31.162Z,100659.17
2018-09-30T01:38:58.097Z,100653.27
2018-09-30T01:41:24.929Z,100657.44
2018-09-30T01:43:51.896Z,100658.46
2018-09-30T01:46:18.764Z,100658.54
2018-09-30T01:48:45.714Z,100656.98
2018-09-30T01:51:12.598Z,100652.28
2018-09-30T01:53:39.430Z,100643.86
2018-09-30T01:56:06.282Z,100635.61
2018-09-30T01:58:33.141Z,100637.80
2018-09-30T02:01:00.011Z,100638.09
2018-09-30T02:03:26.862Z,100625.02
2018-09-30T02:05:53.807Z,100623.42
2018-09-30T02:08:20.654Z,100617.33
2018-09-30T02:10:47.517Z,100618.67
2018-09-30T02:13:14.346Z,100622.87
2018-09-30T02:15:41.214Z,100621.48
2018-09-30T02:18:08.124Z,100620.08
2018-09-30T02:20:35.010Z,100625.95
2018-09-30T02:23:01.886Z,100626.38
2018-09-30T02:25:28.758Z,100618.95
2018-09-30T02:27:55.707Z,100621.62
2018-09-30T02:30:23.590Z,100616.27
2018-09-30T02:32:50.575Z,100618.13
2018-09-30T02:35:17.498Z,100618.64
2018-09-30T02:37:44.503Z,100614.36
2018-09-30T02:40:11.419Z,100608.16
2018-09-30T02:42:38.371Z,100610.08
2018-09-30T02:45:05.215Z,100606.80
2018-09-30T02:47:32.042Z,100606.52
2018-09-30T02:49:58.923Z,100601.25
2018-09-30T02:52:25.810Z,100606.73
2018-09-30T02:54:52.730Z,100607.78
2018-09-30T02:57:19.603Z,100604.55
2018-09-30T02:59:46.635Z,100597.05
2018-09-30T03:02:13.525Z,100597.86
2018-09-30T03:04:40.458Z,100591.43
2018-09-30T03:07:13.026Z,100588.38
2018-09-30T03:09:41.859Z,100587.03
2018-09-30T03:12:08.719Z,100577.91
2018-09-30T03:14:35.698Z,100579.97
2018-09-30T03:17:02.626Z,100576.52
2018-09-30T03:19:29.485Z,100576.16
2018-09-30T03:21:56.345Z,100572.95
2018-09-30T03:24:23.185Z,100569.23
2018-09-30T03:26:50.054Z,100569.64
2018-09-30T03:29:16.994Z,100570.58
2018-09-30T03:31:43.862Z,100572.22
2018-09-30T03:34:10.710Z,100576.52
2018-09-30T03:36:37.579Z,100572.53
2018-09-30T03:39:06.417Z,100564.27
2018-09-30T03:41:33.478Z,100564.98
2018-09-30T03:44:00.379Z,100563.69
2018-09-30T03:46:27.259Z,100566.56
2018-09-30T03:48:54.111Z,100569.09
2018-09-30T03:51:21.054Z,100566.48
2018-09-30T03:53:47.902Z,100578.08
2018-09-30T03:56:14.761Z,100574.16
2018-09-30T03:58:41.624Z,100582.48
2018-09-30T04:01:08.479Z,100571.77
2018-09-30T04:03:35.319Z,100567.44
2018-09-30T04:06:02.195Z,100570.26
2018-09-30T04:08:29.054Z,100572.44
2018-09-30T04:10:56.047Z,100567.00
2018-09-30T04:13:22.886Z,100559.04
2018-09-30T04:15:49.726Z,100562.37
2018-09-30T04:18:16.662Z,100561.77
2018-09-30T04:20:43.522Z,100564.92
2018-09-30T04:23:10.402Z,100555.95
2018-09-30T04:25:37.241Z,100556.36
2018-09-30T04:28:04.182Z,100560.17
2018-09-30T04:30:31.222Z,100557.09
2018-09-30T04:32:58.054Z,100550.97
2018-09-30T04:35:24.947Z,100544.16
2018-09-30T04:37:51.831Z,100545.50
2018-09-30T04:40:18.862Z,100545.19
2018-09-30T04:42:45.727Z,100542.09
2018-09-30T04:45:12.581Z,100540.70
2018-09-30T04:47:39.487Z,100537.77
2018-09-30T04:50:06.435Z,100535.03
2018-09-30T04:52:33.254Z,100534.11
2018-09-30T04:55:00.086Z,100532.52
2018-09-30T04:57:26.960Z,100534.67
2018-09-30T04:59:53.912Z,100538.13
2018-09-30T05:02:20.766Z,100536.74
2018-09-30T05:04:47.641Z,100536.08
2018-09-30T05:07:14.528Z,100540.14
2018-09-30T05:09:41.354Z,100544.92
2018-09-30T05:12:08.306Z,100548.95
2018-09-30T05:14:35.254Z,100548.52
2018-09-30T05:17:02.102Z,100546.52
2018-09-30T05:19:28.976Z,100546.31
2018-09-30T05:21:55.936Z,100548.98
2018-09-30T05:24:22.869Z,100562.84
2018-09-30T05:26:50.742Z,100551.58
2018-09-30T05:29:17.580Z,100550.70
2018-09-30T05:31:44.406Z,100549.72
2018-09-30T05:34:11.314Z,100551.67
2018-09-30T05:36:38.175Z,100554.42
2018-09-30T05:39:06.808Z,100557.88
2018-09-30T05:41:33.726Z,100556.31
2018-09-30T05:44:00.593Z,100550.25
2018-09-30T05:46:27.537Z,100557.70
2018-09-30T05:48:54.455Z,100553.02
2018-09-30T05:51:21.262Z,100554.20
2018-09-30T05:53:48.252Z,100563.57
2018-09-30T05:56:15.154Z,100550.16
2018-09-30T05:58:42.026Z,100552.55
2018-09-30T06:01:09.102Z,100543.33
2018-09-30T06:03:35.996Z,100545.87
2018-09-30T06:06:02.902Z,100548.66
2018-09-30T06:08:29.875Z,100550.84
2018-09-30T06:10:56.716Z,100543.31
2018-09-30T06:13:23.682Z,100542.27
2018-09-30T06:15:50.678Z,100536.12
2018-09-30T06:18:17.585Z,100540.46
2018-09-30T06:20:44.438Z,100538.45
2018-09-30T06:23:11.270Z,100541.52
2018-09-30T06:25:38.154Z,100539.20
2018-09-30T06:28:05.094Z,100550.83
2018-09-30T06:30:32.066Z,100557.56
2018-09-30T06:32:58.997Z,100560.97
2018-09-30T06:35:25.862Z,100565.39
2018-09-30T06:37:53.026Z,100565.72
2018-09-30T06:40:19.898Z,100563.25
2018-09-30T06:42:46.743Z,100560.62
2018-09-30T06:45:13.677Z,100561.38
2018-09-30T06:47:40.538Z,100562.73
2018-09-30T06:50:07.422Z,100561.35
2018-09-30T06:52:34.424Z,100559.22
2018-09-30T06:55:01.311Z,100566.28
2018-09-30T06:57:28.181Z,100570.06
2018-09-30T06:59:55.123Z,100563.83
2018-09-30T07:02:22.166Z,100563.47
2018-09-30T07:04:49.105Z,100568.28
2018-09-30T07:07:15.901Z,100559.47
2018-09-30T07:09:42.862Z,100561.10
2018-09-30T07:12:09.830Z,100570.00
2018-09-30T07:14:36.762Z,100566.00
2018-09-30T07:17:03.618Z,100560.81
2018-09-30T07:19:30.479Z,100564.56
2018-09-30T07:21:57.318Z,100568.35
2018-09-30T07:24:24.206Z,100570.09
2018-09-30T07:26:51.154Z,100568.83
2018-09-30T07:29:17.997Z,100565.45
2018-09-30T07:31:44.894Z,100554.72
2018-09-30T07:34:11.884Z,100550.22
2018-09-30T07:36:38.794Z,100549.81
2018-09-30T07:39:07.018Z,100558.23
2018-09-30T07:41:33.929Z,100558.44
2018-09-30T07:44:00.915Z,100560.00
2018-09-30T07:46:27.822Z,100556.88
2018-09-30T07:48:54.687Z,100554.19
2018-09-30T07:51:21.550Z,100556.50
2018-09-30T07:53:48.534Z,100556.75
2018-09-30T07:56:15.461Z,100545.64
2018-09-30T07:58:42.403Z,100547.62
2018-09-30T08:01:09.262Z,100535.61
2018-09-30T08:03:36.118Z,100535.17
2018-09-30T08:06:03.013Z,100534.17
2018-09-30T08:08:29.917Z,100535.38
2018-09-30T08:10:56.791Z,100535.95
2018-09-30T08:13:23.779Z,100528.41
2018-09-30T08:15:50.865Z,100531.16
2018-09-30T08:18:17.762Z,100530.33
2018-09-30T08:20:44.622Z,100523.41
2018-09-30T08:23:12.509Z,100521.53
2018-09-30T08:25:39.467Z,100522.49
2018-09-30T08:28:06.436Z,100523.45
2018-09-30T08:30:34.304Z,100512.77
2018-09-30T08:33:01.351Z,100517.84
2018-09-30T08:35:29.293Z,100513.94
2018-09-30T08:38:01.971Z,100510.31
2018-09-30T08:40:34.677Z,100507.30
2018-09-30T08:43:01.587Z,100509.70
2018-09-30T08:45:28.673Z,100514.02
2018-09-30T08:47:55.990Z,100499.30
2018-09-30T08:50:23.906Z,100497.70
2018-09-30T08:52:51.061Z,100497.06
2018-09-30T08:55:17.890Z,100498.91
2018-09-30T08:57:44.730Z,100499.27
2018-09-30T09:00:11.610Z,100487.27
2018-09-30T09:02:38.461Z,100476.88
2018-09-30T09:05:05.334Z,100478.00
2018-09-30T09:07:32.168Z,100481.41
2018-09-30T09:09:59.079Z,100483.18
2018-09-30T09:12:26.026Z,100486.14
2018-09-30T09:14:52.929Z,100479.98
2018-09-30T09:17:19.767Z,100478.17
2018-09-30T09:19:46.635Z,100477.45
2018-09-30T09:22:13.569Z,100478.41
2018-09-30T09:24:40.462Z,100467.48
2018-09-30T09:27:07.534Z,100474.41
2018-09-30T09:29:34.489Z,100480.14
2018-09-30T09:32:01.438Z,100471.28
2018-09-30T09:34:28.362Z,100472.13
2018-09-30T09:36:55.246Z,100470.96
2018-09-30T09:39:22.103Z,100471.44
2018-09-30T09:41:49.057Z,100467.83
2018-09-30T09:44:15.952Z,100466.31
2018-09-30T09:46:42.885Z,100459.30
2018-09-30T09:49:09.858Z,100451.89
2018-09-30T09:51:36.730Z,100442.23
2018-09-30T09:54:03.638Z,100440.61
2018-09-30T09:56:30.523Z,100432.16
2018-09-30T09:58:57.524Z,100421.77
2018-09-30T10:01:24.362Z,100422.66
2018-09-30T10:03:51.302Z,100419.11
2018-09-30T10:06:18.218Z,100428.45
2018-09-30T10:08:45.087Z,100423.31
2018-09-30T10:11:12.034Z,100417.95
2018-09-30T10:13:38.870Z,100406.86
2018-09-30T10:16:06.039Z,100404.83
2018-09-30T10:18:33.627Z,100396.74
2018-09-30T10:21:00.983Z,100394.02
2018-09-30T10:23:30.438Z,100403.88
2018-09-30T10:25:57.470Z,100392.76
2018-09-30T10:28:24.406Z,100398.23
2018-09-30T10:30:51.623Z,100399.36
2018-09-30T10:33:18.554Z,100384.03
2018-09-30T10:35:45.389Z,100386.36
2018-09-30T10:38:12.284Z,100388.82
2018-09-30T10:40:39.226Z,100386.06
2018-09-30T10:43:06.249Z,100378.05
2018-09-30T10:45:33.079Z,100370.52
2018-09-30T10:47:59.983Z,100366.83
2018-09-30T10:50:26.882Z,100360.64
2018-09-30T10:52:53.793Z,100347.47
2018-09-30T10:55:20.665Z,100353.09
2018-09-30T10:57:47.498Z,100343.50
2018-09-30T11:00:14.420Z,100346.47
2018-09-30T11:02:41.239Z,100335.72
2018-09-30T11:05:08.158Z,100334.53
2018-09-30T11:07:35.007Z,100336.06
2018-09-30T11:10:01.975Z,100338.91
2018-09-30T11:12:28.735Z,100330.56
2018-09-30T11:14:55.630Z,100331.65
2018-09-30T11:17:22.788Z,100324.55
2018-09-30T11:19:49.724Z,100318.64
2018-09-30T11:22:16.720Z,100324.04
2018-09-30T11:24:43.529Z,100319.16
2018-09-30T11:27:10.351Z,100312.84
2018-09-30T11:29:37.230Z,100304.88
2018-09-30T11:32:04.082Z,100300.51
2018-09-30T11:34:30.933Z,100298.21
2018-09-30T11:36:57.785Z,100298.91
2018-09-30T11:39:24.663Z,100292.58
2018-09-30T11:41:51.598Z,100284.31
2018-09-30T11:44:18.482Z,100279.91
2018-09-30T11:46:45.325Z,100272.66
2018-09-30T11:49:12.201Z,100265.78
2018-09-30T11:51:39.168Z,100259.85
2018-09-30T11:54:06.076Z,100254.34
2018-09-30T11:56:33.266Z,100246.38
2018-09-30T11:59:00.499Z,100237.97
2018-09-30T12:01:27.371Z,100234.64
2018-09-30T12:03:55.234Z,100231.27
2018-09-30T12:06:22.114Z,100225.87
2018-09-30T12:08:49.054Z,100218.58
2018-09-30T12:11:15.928Z,100208.12
2018-09-30T12:13:42.862Z,100203.37
2018-09-30T12:16:09.813Z,100195.24
2018-09-30T12:18:36.689Z,100194.45
2018-09-30T12:21:03.517Z,100193.55
2018-09-30T12:23:30.398Z,100189.98
2018-09-30T12:25:57.385Z,100188.16
2018-09-30T12:28:24.194Z,100179.62
2018-09-30T12:30:51.049Z,100173.62
2018-09-30T12:33:17.906Z,100170.77
2018-09-30T12:35:44.838Z,100166.64
2018-09-30T12:38:11.718Z,100162.16
2018-09-30T12:40:38.623Z,100155.83
2018-09-30T12:43:06.545Z,100163.80
2018-09-30T12:45:33.410Z,100155.09
2018-09-30T12:48:00.261Z,100153.38
2018-09-30T12:50:27.118Z,100158.67
2018-09-30T12:52:53.960Z,100146.04
2018-09-30T12:55:20.846Z,100141.11
2018-09-30T12:57:47.906Z,100146.05
2018-09-30T13:00:14.992Z,100142.58
2018-09-30T13:02:41.970Z,100141.22
2018-09-30T13:05:09.163Z,100141.11
2018-09-30T13:07:37.110Z,100135.31
2018-09-30T13:10:04.148Z,100129.15
2018-09-30T13:12:32.298Z,100123.91
2018-09-30T13:14:59.147Z,100120.64
2018-09-30T13:17:26.347Z,100116.13
2018-09-30T13:19:53.342Z,100112.19
2018-09-30T13:22:20.415Z,100114.57
2018-09-30T13:24:47.282Z,100118.35
2018-09-30T13:27:14.421Z,100110.27
2018-09-30T13:29:41.309Z,100119.14
2018-09-30T13:32:08.305Z,100115.86
2018-09-30T13:34:36.921Z,100107.86
2018-09-30T13:37:03.822Z,100106.06
2018-09-30T13:39:30.743Z,100101.31
2018-09-30T13:41:57.651Z,100102.97
2018-09-30T13:44:24.602Z,100099.22
2018-09-30T13:46:51.441Z,100100.95
2018-09-30T13:49:18.302Z,100104.68
2018-09-30T13:51:45.163Z,100098.14
2018-09-30T13:54:12.101Z,100096.36
2018-09-30T13:56:38.952Z,100104.14
2018-09-30T13:59:05.822Z,100093.09
2018-09-30T14:01:33.043Z,100089.64
2018-09-30T14:03:59.975Z,100087.98
2018-09-30T14:06:27.926Z,100087.50
2018-09-30T14:08:54.199Z,100079.56
2018-09-30T14:11:21.138Z,100080.73
2018-09-30T14:13:48.185Z,100065.05
2018-09-30T14:16:15.050Z,100058.13
2018-09-30T14:18:41.985Z,100056.45
2018-09-30T14:21:08.870Z,100062.51
2018-09-30T14:23:36.018Z,100062.34
2018-09-30T14:26:02.860Z,100050.22
2018-09-30T14:28:30.750Z,100046.09
2018-09-30T14:30:57.643Z,100036.52
2018-09-30T14:33:24.563Z,100035.91
2018-09-30T14:35:51.413Z,100030.60
2018-09-30T14:38:18.466Z,100035.66
2018-09-30T14:40:45.445Z,100034.58
2018-09-30T14:43:12.378Z,100027.74
2018-09-30T14:45:39.279Z,100022.16
2018-09-30T14:48:06.248Z,100025.45
2018-09-30T14:50:33.154Z,100023.90
2018-09-30T14:53:00.314Z,100022.81
2018-09-30T14:55:27.185Z,100023.32
2018-09-30T14:57:54.130Z,100019.37
2018-09-30T15:00:20.999Z,100020.67
2018-09-30T15:02:47.939Z,100020.45
2018-09-30T15:05:14.818Z,100014.80
2018-09-30T15:07:41.747Z,100016.70
2018-09-30T15:10:08.667Z,100014.93
2018-09-30T15:12:36.390Z,100014.28
2018-09-30T15:15:04.466Z,100006.18
2018-09-30T15:17:32.407Z,100001.82
2018-09-30T15:19:59.202Z,100001.59
2018-09-30T15:22:26.064Z,100001.47
2018-09-30T15:24:52.910Z,99997.66
2018-09-30T15:27:19.809Z,99992.09
2018-09-30T15:29:46.766Z,100003.09
2018-09-30T15:32:13.616Z,99991.05
2018-09-30T15:34:40.578Z,99993.86
2018-09-30T15:37:07.486Z,99994.37
2018-09-30T15:39:34.366Z,99998.95
2018-09-30T15:42:01.290Z,99992.80
2018-09-30T15:44:28.131Z,99991.21
2018-09-30T15:46:55.031Z,99988.99
2018-09-30T15:49:21.974Z,99991.05
2018-09-30T15:51:48.855Z,99989.16
2018-09-30T15:54:15.754Z,99984.63
2018-09-30T15:56:42.669Z,99985.11
2018-09-30T15:59:09.599Z,99984.69
2018-09-30T16:01:36.474Z,99980.29
2018-09-30T16:04:03.503Z,99985.80
2018-09-30T16:06:30.366Z,99983.66
2018-09-30T16:08:57.242Z,99981.02
2018-09-30T16:11:24.191Z,99980.88
2018-09-30T16:13:51.168Z,99978.28
2018-09-30T16:16:19.335Z,99979.73
2018-09-30T16:18:46.307Z,99983.62
2018-09-30T16:21:13.245Z,99989.94
2018-09-30T16:23:40.106Z,99985.34
2018-09-30T16:26:07.114Z,99988.62
2018-09-30T16:28:34.011Z,99982.80
2018-09-30T16:31:00.954Z,99988.56
2018-09-30T16:33:27.832Z,99990.28
2018-09-30T16:35:54.702Z,99983.29
2018-09-30T16:38:21.627Z,99982.92
2018-09-30T16:40:48.534Z,99981.26
2018-09-30T16:43:15.665Z,99981.72
2018-09-30T16:45:42.494Z,99970.14
2018-09-30T16:48:10.789Z,99975.83
2018-09-30T16:50:37.746Z,99978.44
2018-09-30T16:53:04.717Z,99976.66
2018-09-30T16:55:31.710Z,99982.23
2018-09-30T16:57:59.862Z,99973.02
2018-09-30T17:00:27.808Z,99976.59
2018-09-30T17:02:54.829Z,99978.34
2018-09-30T17:05:21.911Z,99972.24
2018-09-30T17:07:48.801Z,99975.23
2018-09-30T17:10:15.759Z,99981.70
2018-09-30T17:12:42.654Z,99990.60
2018-09-30T17:15:09.574Z,99984.16
2018-09-30T17:17:36.416Z,99980.27
2018-09-30T17:20:03.314Z,99986.28
2018-09-30T17:22:30.247Z,99981.43
2018-09-30T17:24:57.383Z,99989.84
2018-09-30T17:27:24.302Z,99991.22
2018-09-30T17:29:51.242Z,99987.15
2018-09-30T17:32:18.217Z,99988.58
2018-09-30T17:34:45.158Z,99987.08
2018-09-30T17:37:12.130Z,99993.78
2018-09-30T17:39:39.042Z,99989.08
2018-09-30T17:42:05.946Z,99992.08
2018-09-30T17:44:32.969Z,99990.70
2018-09-30T17:46:59.907Z,99993.78
2018-09-30T17:49:26.854Z,99996.84
2018-09-30T17:51:53.744Z,99994.73
2018-09-30T17:54:20.675Z,99982.06
2018-09-30T17:56:47.554Z,99995.98
2018-09-30T17:59:16.570Z,99996.47
2018-09-30T18:01:43.614Z,100004.58
2018-09-30T18:04:11.211Z,99994.46
2018-09-30T18:06:38.054Z,99987.91
2018-09-30T18:09:07.517Z,99994.41
2018-09-30T18:11:34.390Z,99996.95
2018-09-30T18:14:02.452Z,99993.36
2018-09-30T18:16:29.382Z,99992.73
2018-09-30T18:18:56.338Z,100001.12
2018-09-30T18:21:23.263Z,100002.94
2018-09-30T18:23:50.304Z,99995.22
2018-09-30T18:26:17.059Z,99997.36
2018-09-30T18:28:49.305Z,100001.84
2018-09-30T18:31:16.291Z,99999.30
2018-09-30T18:33:43.204Z,99995.85
2018-09-30T18:36:10.116Z,99991.52
2018-09-30T18:38:38.068Z,99996.35
2018-09-30T18:41:05.130Z,99995.38
2018-09-30T18:43:33.051Z,99993.53
2018-09-30T18:46:00.006Z,99989.46
2018-09-30T18:48:27.014Z,99997.89
2018-09-30T18:50:53.937Z,99996.68
2018-09-30T18:53:20.793Z,99998.47
2018-09-30T18:55:47.861Z,100000.91
2018-09-30T18:58:14.686Z,100002.03
2018-09-30T19:00:42.671Z,100002.58
2018-09-30T19:03:09.622Z,99999.91
2018-09-30T19:05:36.509Z,100001.06
2018-09-30T19:08:03.586Z,100005.52
2018-09-30T19:10:30.574Z,100009.31
2018-09-30T19:12:57.433Z,100011.29
2018-09-30T19:15:24.365Z,100018.53
2018-09-30T19:17:52.652Z,100009.72
2018-09-30T19:20:21.616Z,100010.70
2018-09-30T19:22:49.224Z,100014.61
2018-09-30T19:25:16.328Z,100018.52
2018-09-30T19:27:44.144Z,100013.95
2018-09-30T19:30:11.205Z,100010.19
2018-09-30T19:32:38.106Z,100011.95
2018-09-30T19:35:04.990Z,100006.44
2018-09-30T19:37:31.845Z,100004.17
2018-09-30T19:39:58.682Z,100013.01
2018-09-30T19:42:26.626Z,100002.44
2018-09-30T19:44:53.483Z,100011.35
2018-09-30T19:47:20.382Z,100001.21
2018-09-30T19:49:47.334Z,99993.66
2018-09-30T19:52:14.216Z,100000.64
2018-09-30T19:54:41.078Z,99996.19
2018-09-30T19:57:07.999Z,99993.56
2018-09-30T19:59:34.880Z,99998.77
2018-09-30T20:02:01.862Z,99995.12
2018-09-30T20:04:28.727Z,99995.12
2018-09-30T20:06:55.683Z,99991.20
2018-09-30T20:09:22.562Z,99989.51
2018-09-30T20:11:49.483Z,99992.53
2018-09-30T20:14:16.390Z,99984.34
2018-09-30T20:16:43.318Z,99985.16
2018-09-30T20:19:10.142Z,99987.67
2018-09-30T20:21:37.061Z,99988.23
2018-09-30T20:24:08.040Z,99983.24
2018-09-30T20:26:35.332Z,99988.11
2018-09-30T20:29:02.244Z,99982.41
2018-09-30T20:31:29.110Z,99986.99
2018-09-30T20:33:55.974Z,99986.36
2018-09-30T20:36:22.801Z,99985.83
2018-09-30T20:38:49.683Z,99981.25
2018-09-30T20:41:16.670Z,99984.97
2018-09-30T20:43:44.593Z,99976.97
2018-09-30T20:46:11.430Z,99975.34
2018-09-30T20:48:38.392Z,99979.00
2018-09-30T20:51:05.266Z,99975.00
2018-09-30T20:53:33.093Z,99977.70
2018-09-30T20:56:00.034Z,99972.86
2018-09-30T20:58:26.822Z,99973.37
2018-09-30T21:00:53.718Z,99970.59
2018-09-30T21:03:20.575Z,99965.39
2018-09-30T21:06:08.395Z,99965.03
2018-09-30T21:08:35.371Z,99961.13
2018-09-30T21:11:02.199Z,99966.80
2018-09-30T21:13:29.120Z,99962.76
2018-09-30T21:15:57.589Z,99961.09
2018-09-30T21:18:24.554Z,99962.94
2018-09-30T21:20:51.539Z,99966.94
2018-09-30T21:23:18.451Z,99962.09
2018-09-30T21:25:46.378Z,99967.27
2018-09-30T21:28:13.398Z,99974.79
2018-09-30T21:30:40.206Z,99967.63
2018-09-30T21:33:07.119Z,99973.50
2018-09-30T21:35:34.055Z,99972.38
2018-09-30T21:38:00.907Z,99969.98
2018-09-30T21:40:27.765Z,99975.89
2018-09-30T21:42:54.594Z,99975.23
2018-09-30T21:45:21.491Z,99969.43
2018-09-30T21:47:48.426Z,99966.61
2018-09-30T21:50:15.283Z,99965.66
2018-09-30T21:52:42.130Z,99973.81
2018-09-30T21:55:09.015Z,99971.66
2018-09-30T21:57:35.850Z,99968.08
2018-09-30T22:00:02.813Z,99972.67
2018-09-30T22:02:29.668Z,99966.16
2018-09-30T22:04:56.534Z,99963.41
2018-09-30T22:07:23.778Z,99966.17
2018-09-30T22:09:50.598Z,99972.32
2018-09-30T22:12:18.510Z,99977.95
2018-09-30T22:14:45.358Z,99979.52
2018-09-30T22:17:12.222Z,99980.30
2018-09-30T22:19:39.089Z,99983.55
2018-09-30T22:22:06.970Z,99993.81
2018-09-30T22:24:33.822Z,99998.08
2018-09-30T22:27:00.745Z,99999.75
2018-09-30T22:29:27.537Z,100003.81
2018-09-30T22:31:54.486Z,100000.02
2018-09-30T22:34:21.349Z,99996.10
2018-09-30T22:36:48.167Z,99999.66
2018-09-30T22:39:15.042Z,100006.34
2018-09-30T22:41:41.902Z,100002.52
2018-09-30T22:44:08.752Z,100007.72
2018-09-30T22:46:35.594Z,100002.14
2018-09-30T22:49:02.472Z,99995.27
2018-09-30T22:51:29.342Z,100002.05
2018-09-30T22:53:56.282Z,99992.08
2018-09-30T22:56:23.130Z,99993.20
2018-09-30T22:58:49.979Z,99996.78
2018-09-30T23:01:16.867Z,99998.74
2018-09-30T23:03:43.793Z,99994.61
2018-09-30T23:06:10.670Z,100001.22
2018-09-30T23:08:37.523Z,99998.89
2018-09-30T23:11:04.412Z,99989.44
2018-09-30T23:13:31.328Z,99990.71
2018-09-30T23:15:58.218Z,99988.67
2018-09-30T23:18:25.083Z,99985.10
2018-09-30T23:20:51.986Z,99979.24
2018-09-30T23:23:18.872Z,99990.33
2018-09-30T23:25:45.794Z,99978.95
2018-09-30T23:28:12.653Z,99979.77
2018-09-30T23:30:39.475Z,99978.25
2018-09-30T23:33:06.357Z,99982.72
2018-09-30T23:35:33.218Z,99975.83
2018-09-30T23:38:00.080Z,99978.84
2018-09-30T23:40:26.926Z,99981.77
2018-09-30T23:42:53.835Z,99983.75
2018-09-30T23:45:20.736Z,99990.66
2018-09-30T23:47:47.587Z,99997.48
2018-09-30T23:50:14.414Z,99989.27
2018-09-30T23:52:41.313Z,99992.27
2018-09-30T23:55:08.166Z,99998.88
2018-09-30T23:57:35.010Z,99998.78
